createdAt,value
2022-09-18T00:01:38.339Z,1.70
2022-09-18T00:04:09.108Z,2.07
2022-09-18T00:06:39.348Z,1.67
2022-09-18T00:09:09.636Z,1.47
2022-09-18T00:11:41.455Z,1.60
2022-09-18T00:14:13.166Z,1.50
2022-09-18T00:16:41.800Z,1.30
2022-09-18T00:19:10.601Z,1.37
2022-09-18T00:21:42.729Z,1.50
2022-09-18T00:24:11.106Z,1.37
2022-09-18T00:26:41.092Z,1.43
2022-09-18T00:29:09.234Z,1.40
2022-09-18T00:31:37.948Z,1.30
2022-09-18T00:34:08.821Z,1.40
2022-09-18T00:36:38.364Z,1.40
2022-09-18T00:39:07.445Z,1.33
2022-09-18T00:41:37.699Z,1.67
2022-09-18T00:44:33.811Z,1.30
2022-09-18T00:47:08.249Z,1.40
2022-09-18T00:49:37.801Z,1.30
2022-09-18T00:52:06.300Z,1.57
2022-09-18T00:54:37.399Z,1.20
2022-09-18T00:57:10.324Z,1.03
2022-09-18T00:59:44.106Z,1.07
2022-09-18T01:02:13.151Z,0.90
2022-09-18T01:04:41.479Z,1.00
2022-09-18T01:07:19.559Z,0.90
2022-09-18T01:09:57.504Z,0.87
2022-09-18T01:12:34.129Z,0.80
2022-09-18T01:15:11.759Z,0.87
2022-09-18T01:17:46.812Z,0.70
2022-09-18T01:20:30.263Z,0.87
2022-09-18T01:23:16.711Z,0.53
2022-09-18T01:25:57.864Z,0.80
2022-09-18T01:28:38.632Z,0.87
2022-09-18T01:31:13.830Z,0.50
2022-09-18T01:33:48.124Z,1.00
2022-09-18T01:36:20.336Z,0.80
2022-09-18T01:38:52.900Z,0.80
2022-09-18T01:41:23.919Z,1.00
2022-09-18T01:43:58.984Z,0.73
2022-09-18T01:46:27.060Z,1.10
2022-09-18T01:48:59.600Z,1.33
2022-09-18T01:51:32.449Z,0.70
2022-09-18T01:54:04.126Z,0.90
2022-09-18T01:56:37.261Z,0.53
2022-09-18T01:59:12.118Z,0.60
2022-09-18T02:01:44.147Z,0.70
2022-09-18T02:04:16.024Z,0.57
2022-09-18T02:06:48.619Z,0.73
2022-09-18T02:09:16.825Z,0.80
2022-09-18T02:11:50.893Z,0.60
2022-09-18T02:14:25.004Z,0.30
2022-09-18T02:16:55.914Z,0.80
2022-09-18T02:19:28.807Z,0.63
2022-09-18T02:21:58.664Z,0.60
2022-09-18T02:24:31.960Z,1.00
2022-09-18T02:27:02.470Z,0.60
2022-09-18T02:29:33.605Z,0.77
2022-09-18T02:32:02.424Z,0.90
2022-09-18T02:34:31.495Z,0.63
2022-09-18T02:37:10.002Z,0.60
2022-09-18T02:39:50.367Z,0.70
2022-09-18T02:42:29.493Z,1.37
2022-09-18T02:45:08.191Z,0.80
2022-09-18T02:47:46.603Z,0.50
2022-09-18T02:50:22.407Z,0.80
2022-09-18T02:52:56.459Z,0.90
2022-09-18T02:55:28.523Z,1.17
2022-09-18T02:58:01.178Z,1.30
2022-09-18T03:00:33.189Z,1.00
2022-09-18T03:03:01.576Z,1.17
2022-09-18T03:05:29.651Z,0.90
2022-09-18T03:07:57.764Z,1.37
2022-09-18T03:10:26.116Z,1.67
2022-09-18T03:12:54.154Z,1.20
2022-09-18T03:15:22.371Z,1.07
2022-09-18T03:17:51.808Z,1.23
2022-09-18T03:20:19.859Z,1.37
2022-09-18T03:22:47.912Z,1.40
2022-09-18T03:25:16.587Z,2.07
2022-09-18T03:27:44.731Z,1.53
2022-09-18T03:30:13.817Z,1.40
2022-09-18T03:32:41.844Z,1.40
2022-09-18T03:35:11.639Z,1.33
2022-09-18T03:37:39.682Z,1.53
2022-09-18T03:40:09.452Z,1.60
2022-09-18T03:42:37.515Z,2.03
2022-09-18T03:45:06.903Z,1.57
2022-09-18T03:47:36.672Z,1.50
2022-09-18T03:50:06.225Z,1.50
2022-09-18T03:52:36.062Z,1.37
2022-09-18T03:55:04.137Z,1.80
2022-09-18T03:57:32.229Z,2.30
2022-09-18T04:00:00.480Z,1.80
2022-09-18T04:02:28.607Z,2.50
2022-09-18T04:04:56.914Z,1.40
2022-09-18T04:07:24.989Z,1.90
2022-09-18T04:09:54.449Z,1.53
2022-09-18T04:12:22.545Z,1.70
2022-09-18T04:14:50.579Z,1.90
2022-09-18T04:17:18.624Z,2.10
2022-09-18T04:19:49.099Z,2.37
2022-09-18T04:22:21.021Z,2.40
2022-09-18T04:24:50.516Z,1.80
2022-09-18T04:27:20.156Z,1.80
2022-09-18T04:29:48.209Z,2.60
2022-09-18T04:32:16.308Z,1.70
2022-09-18T04:34:44.497Z,1.93
2022-09-18T04:37:12.927Z,2.13
2022-09-18T04:39:41.013Z,2.10
2022-09-18T04:42:09.151Z,2.10
2022-09-18T04:44:38.643Z,1.87
2022-09-18T04:47:07.624Z,1.80
2022-09-18T04:49:35.683Z,1.83
2022-09-18T04:52:04.078Z,2.00
2022-09-18T04:54:32.136Z,2.13
2022-09-18T04:57:00.313Z,2.10
2022-09-18T04:59:28.367Z,1.93
2022-09-18T05:01:57.884Z,2.73
2022-09-18T05:04:26.056Z,1.93
2022-09-18T05:06:54.092Z,2.17
2022-09-18T05:09:22.132Z,2.47
2022-09-18T05:11:50.177Z,2.00
2022-09-18T05:14:18.242Z,2.30
2022-09-18T05:16:46.305Z,2.07
2022-09-18T05:19:15.793Z,1.70
2022-09-18T05:21:43.869Z,1.73
2022-09-18T05:24:14.090Z,1.87
2022-09-18T05:26:42.141Z,2.17
2022-09-18T05:29:10.209Z,2.07
2022-09-18T05:31:38.654Z,1.93
2022-09-18T05:34:06.817Z,1.70
2022-09-18T05:36:36.292Z,1.50
2022-09-18T05:39:04.584Z,1.23
2022-09-18T05:41:32.647Z,1.90
2022-09-18T05:44:00.662Z,1.87
2022-09-18T05:46:28.738Z,1.00
2022-09-18T05:48:56.884Z,1.63
2022-09-18T05:51:24.997Z,1.40
2022-09-18T05:53:54.433Z,1.70
2022-09-18T05:56:22.469Z,1.70
2022-09-18T05:58:50.545Z,1.90
2022-09-18T06:01:18.577Z,1.70
2022-09-18T06:03:46.627Z,1.60
2022-09-18T06:06:14.664Z,1.83
2022-09-18T06:08:42.697Z,1.43
2022-09-18T06:11:12.136Z,1.83
2022-09-18T06:13:40.229Z,1.80
2022-09-18T06:16:08.519Z,1.73
2022-09-18T06:18:36.582Z,1.33
2022-09-18T06:21:04.842Z,2.50
2022-09-18T06:23:32.898Z,1.87
2022-09-18T06:26:01.597Z,1.43
2022-09-18T06:28:32.485Z,1.10
2022-09-18T06:31:01.254Z,1.43
2022-09-18T06:33:30.411Z,1.87
2022-09-18T06:35:58.554Z,1.47
2022-09-18T06:38:26.633Z,1.50
2022-09-18T06:40:55.748Z,1.73
2022-09-18T06:43:23.844Z,1.63
2022-09-18T06:45:54.508Z,1.20
2022-09-18T06:48:24.233Z,1.30
2022-09-18T06:50:58.481Z,1.60
2022-09-18T06:53:27.751Z,1.23
2022-09-18T06:56:03.340Z,1.20
2022-09-18T06:58:32.450Z,1.73
2022-09-18T07:01:02.351Z,1.47
2022-09-18T07:03:30.667Z,2.03
2022-09-18T07:05:59.452Z,1.27
2022-09-18T07:08:27.620Z,1.33
2022-09-18T07:10:55.656Z,1.77
2022-09-18T07:13:23.709Z,1.50
2022-09-18T07:15:52.113Z,1.77
2022-09-18T07:18:21.673Z,1.23
2022-09-18T07:20:49.940Z,1.13
2022-09-18T07:23:18.188Z,1.20
2022-09-18T07:25:46.473Z,1.50
2022-09-18T07:28:14.731Z,1.57
2022-09-18T07:30:43.096Z,1.70
2022-09-18T07:33:11.977Z,1.17
2022-09-18T07:35:41.544Z,1.30
2022-09-18T07:38:10.847Z,1.50
2022-09-18T07:40:40.296Z,1.37
2022-09-18T07:43:10.750Z,1.60
2022-09-18T07:45:39.372Z,1.30
2022-09-18T07:48:08.533Z,1.47
2022-09-18T07:50:36.796Z,1.40
2022-09-18T07:53:09.035Z,1.80
2022-09-18T07:55:38.156Z,1.40
2022-09-18T07:58:07.874Z,1.20
2022-09-18T08:00:37.969Z,1.43
2022-09-18T08:03:07.990Z,1.40
2022-09-18T08:05:36.851Z,1.13
2022-09-18T08:08:09.179Z,2.10
2022-09-18T08:10:37.785Z,1.20
2022-09-18T08:13:05.983Z,1.40
2022-09-18T08:15:35.331Z,1.53
2022-09-18T08:18:03.384Z,1.33
2022-09-18T08:20:31.468Z,0.90
2022-09-18T08:22:59.724Z,1.07
2022-09-18T08:25:30.093Z,1.53
2022-09-18T08:28:01.769Z,0.73
2022-09-18T08:30:30.669Z,1.40
2022-09-18T08:33:03.029Z,1.20
2022-09-18T08:35:31.950Z,1.37
2022-09-18T08:38:00.292Z,1.20
2022-09-18T08:40:48.059Z,1.23
2022-09-18T08:43:25.180Z,1.05
2022-09-18T08:45:58.687Z,1.23
2022-09-18T08:48:31.238Z,1.70
2022-09-18T08:51:03.925Z,1.43
2022-09-18T08:53:37.210Z,1.02
2022-09-18T08:56:13.341Z,1.47
2022-09-18T08:58:49.118Z,1.40
2022-09-18T09:01:19.778Z,1.57
2022-09-18T09:03:56.823Z,1.67
2022-09-18T09:06:34.556Z,1.40
2022-09-18T09:09:22.676Z,1.42
2022-09-18T09:12:00.142Z,1.17
2022-09-18T09:14:56.543Z,1.23
2022-09-18T09:17:39.523Z,1.33
2022-09-18T09:20:19.108Z,1.10
2022-09-18T09:22:57.512Z,1.20
2022-09-18T09:25:31.458Z,1.27
2022-09-18T09:28:10.580Z,1.00
2022-09-18T09:30:42.962Z,1.27
2022-09-18T09:33:20.252Z,1.20
2022-09-18T09:35:51.712Z,1.25
2022-09-18T09:38:36.672Z,1.42
2022-09-18T09:41:14.390Z,1.15
2022-09-18T09:43:50.583Z,1.20
2022-09-18T09:46:31.198Z,1.08
2022-09-18T09:49:06.179Z,1.63
2022-09-18T09:51:44.548Z,1.38
2022-09-18T09:54:13.737Z,1.42
2022-09-18T09:56:49.328Z,1.13
2022-09-18T09:59:25.673Z,1.08
2022-09-18T10:01:59.464Z,1.23
2022-09-18T10:04:35.697Z,0.93
2022-09-18T10:07:12.336Z,1.40
2022-09-18T10:09:47.192Z,1.27
2022-09-18T10:12:24.456Z,0.98
2022-09-18T10:14:55.900Z,1.35
2022-09-18T10:17:25.343Z,1.05
2022-09-18T10:19:53.946Z,0.90
2022-09-18T10:22:26.844Z,1.13
2022-09-18T10:25:01.164Z,1.33
2022-09-18T10:27:29.244Z,1.00
2022-09-18T10:29:59.485Z,1.00
2022-09-18T10:32:35.941Z,1.00
2022-09-18T10:35:42.806Z,0.98
2022-09-18T10:38:29.577Z,1.00
2022-09-18T10:40:57.784Z,1.00
2022-09-18T10:43:26.079Z,1.38
2022-09-18T10:45:57.460Z,0.73
2022-09-18T10:48:27.473Z,0.70
2022-09-18T10:50:56.623Z,1.10
2022-09-18T10:53:31.338Z,0.80
2022-09-18T10:56:05.642Z,0.80
2022-09-18T10:58:35.125Z,1.20
2022-09-18T11:01:07.954Z,0.98
2022-09-18T11:03:41.264Z,1.02
2022-09-18T11:06:16.836Z,0.93
2022-09-18T11:08:48.230Z,1.00
2022-09-18T11:11:25.214Z,0.70
2022-09-18T11:13:58.493Z,1.00
2022-09-18T11:16:30.235Z,0.98
2022-09-18T11:19:07.904Z,0.95
2022-09-18T11:21:43.887Z,1.33
2022-09-18T11:24:21.880Z,1.40
2022-09-18T11:26:51.267Z,0.80
2022-09-18T11:29:25.831Z,1.10
2022-09-18T11:31:58.328Z,1.20
2022-09-18T11:34:29.852Z,0.68
2022-09-18T11:37:00.925Z,0.73
2022-09-18T11:39:35.288Z,1.40
2022-09-18T11:42:08.688Z,0.98
2022-09-18T11:44:37.526Z,0.90
2022-09-18T11:47:29.033Z,0.60
2022-09-18T11:50:05.446Z,1.00
2022-09-18T11:52:40.105Z,0.70
2022-09-18T11:55:19.522Z,0.80
2022-09-18T11:57:49.936Z,0.88
2022-09-18T12:00:20.853Z,0.90
2022-09-18T12:02:59.817Z,1.13
2022-09-18T12:05:35.191Z,0.77
2022-09-18T12:08:26.124Z,0.93
2022-09-18T12:11:04.620Z,0.82
2022-09-18T12:13:40.079Z,1.13
2022-09-18T12:16:17.329Z,1.02
2022-09-18T12:18:56.952Z,0.93
2022-09-18T12:21:35.895Z,0.90
2022-09-18T12:24:04.727Z,0.60
2022-09-18T12:26:43.359Z,0.47
2022-09-18T12:29:23.397Z,1.00
2022-09-18T12:32:00.570Z,0.90
2022-09-18T12:34:37.513Z,0.83
2022-09-18T12:37:32.168Z,0.60
2022-09-18T12:40:37.831Z,0.87
2022-09-18T12:43:26.355Z,0.87
2022-09-18T12:46:12.717Z,0.73
2022-09-18T12:49:07.896Z,0.63
2022-09-18T12:51:44.231Z,0.60
2022-09-18T12:54:33.280Z,0.70
2022-09-18T12:57:15.917Z,0.95
2022-09-18T12:59:54.169Z,0.80
2022-09-18T13:02:30.269Z,0.80
2022-09-18T13:05:04.023Z,0.70
2022-09-18T13:07:37.421Z,1.15
2022-09-18T13:10:13.382Z,1.02
2022-09-18T13:12:46.140Z,0.80
2022-09-18T13:15:18.243Z,0.80
2022-09-18T13:17:51.334Z,1.10
2022-09-18T13:20:25.080Z,0.70
2022-09-18T13:22:55.706Z,0.73
2022-09-18T13:25:29.501Z,0.85
2022-09-18T13:27:58.569Z,1.13
2022-09-18T13:30:29.221Z,0.52
2022-09-18T13:32:58.914Z,0.43
2022-09-18T13:35:30.360Z,0.60
2022-09-18T13:38:16.643Z,0.60
2022-09-18T13:40:48.000Z,0.65
2022-09-18T13:43:24.316Z,0.50
2022-09-18T13:45:53.510Z,0.38
2022-09-18T13:48:25.779Z,0.57
2022-09-18T13:50:58.371Z,0.40
2022-09-18T13:53:43.039Z,0.65
2022-09-18T13:56:12.508Z,0.28
2022-09-18T13:58:52.308Z,0.90
2022-09-18T14:01:57.211Z,0.55
2022-09-18T14:04:51.292Z,0.70
2022-09-18T14:07:51.519Z,0.50
2022-09-18T14:10:27.408Z,0.63
2022-09-18T14:13:24.340Z,0.70
2022-09-18T14:15:56.018Z,0.43
2022-09-18T14:18:28.673Z,0.70
2022-09-18T14:20:59.982Z,0.65
2022-09-18T14:24:08.399Z,0.45
2022-09-18T14:27:23.066Z,0.60
2022-09-18T14:29:57.168Z,0.85
2022-09-18T14:32:27.810Z,0.70
2022-09-18T14:35:31.580Z,0.73
2022-09-18T14:37:59.879Z,0.88
2022-09-18T14:40:28.561Z,0.95
2022-09-18T14:42:58.100Z,0.60
2022-09-18T14:45:29.869Z,0.93
2022-09-18T14:47:59.339Z,0.65
2022-09-18T14:50:30.858Z,0.60
2022-09-18T14:53:00.658Z,0.73
2022-09-18T14:55:33.471Z,0.88
2022-09-18T14:58:07.065Z,1.58
2022-09-18T15:00:37.927Z,1.10
2022-09-18T15:03:10.182Z,0.85
2022-09-18T15:05:39.118Z,0.85
2022-09-18T15:08:16.668Z,0.63
2022-09-18T15:10:49.059Z,1.33
2022-09-18T15:13:20.686Z,0.98
2022-09-18T15:15:58.681Z,1.00
2022-09-18T15:18:28.678Z,0.50
2022-09-18T15:20:58.671Z,0.55
2022-09-18T15:23:29.065Z,0.70
2022-09-18T15:26:08.708Z,0.55
2022-09-18T15:28:42.009Z,0.50
2022-09-18T15:31:12.265Z,0.47
2022-09-18T15:33:43.167Z,0.85
2022-09-18T15:36:25.225Z,0.60
2022-09-18T15:38:54.879Z,0.82
2022-09-18T15:41:30.441Z,0.88
2022-09-18T15:44:00.129Z,0.80
2022-09-18T15:46:30.649Z,0.90
2022-09-18T15:49:03.077Z,0.70
2022-09-18T15:51:32.052Z,1.30
2022-09-18T15:54:07.705Z,0.90
2022-09-18T15:56:36.709Z,0.68
2022-09-18T15:59:08.737Z,0.77
2022-09-18T16:01:40.564Z,0.73
2022-09-18T16:04:20.431Z,0.70
2022-09-18T16:06:55.602Z,1.10
2022-09-18T16:09:34.272Z,1.38
2022-09-18T16:12:02.892Z,1.42
2022-09-18T16:14:59.591Z,0.90
2022-09-18T16:17:54.057Z,0.50
2022-09-18T16:20:26.162Z,0.73
2022-09-18T16:22:57.757Z,1.07
2022-09-18T16:25:28.962Z,1.10
2022-09-18T16:27:59.091Z,1.00
2022-09-18T16:30:30.257Z,0.90
2022-09-18T16:33:03.031Z,0.93
2022-09-18T16:35:31.151Z,0.83
2022-09-18T16:37:59.228Z,1.00
2022-09-18T16:40:29.009Z,1.40
2022-09-18T16:42:58.377Z,1.13
2022-09-18T16:45:28.394Z,0.80
2022-09-18T16:48:00.581Z,1.10
2022-09-18T16:50:29.160Z,0.83
2022-09-18T16:53:01.444Z,0.83
2022-09-18T16:55:31.130Z,1.10
2022-09-18T16:57:59.236Z,0.80
2022-09-18T17:00:29.175Z,0.60
2022-09-18T17:02:57.881Z,0.60
2022-09-18T17:05:26.021Z,0.67
2022-09-18T17:07:54.199Z,0.43
2022-09-18T17:10:22.497Z,0.80
2022-09-18T17:12:50.570Z,1.10
2022-09-18T17:15:18.752Z,0.73
2022-09-18T17:17:48.309Z,1.20
2022-09-18T17:20:18.121Z,1.07
2022-09-18T17:22:46.400Z,1.43
2022-09-18T17:25:15.144Z,1.83
2022-09-18T17:27:44.085Z,2.30
2022-09-18T17:30:13.078Z,2.07
2022-09-18T17:32:41.155Z,2.30
2022-09-18T17:35:10.856Z,2.73
2022-09-18T17:37:38.931Z,1.53
2022-09-18T17:40:08.124Z,1.30
2022-09-18T17:42:37.695Z,2.10
2022-09-18T17:45:06.895Z,1.30
2022-09-18T17:47:35.002Z,1.80
2022-09-18T17:50:05.100Z,1.80
2022-09-18T17:52:36.543Z,1.40
2022-09-18T17:55:05.136Z,1.13
2022-09-18T17:57:35.816Z,1.73
2022-09-18T18:00:04.923Z,1.60
2022-09-18T18:02:34.139Z,1.20
2022-09-18T18:05:02.850Z,1.30
2022-09-18T18:07:31.097Z,1.53
2022-09-18T18:10:00.570Z,1.63
2022-09-18T18:12:28.725Z,2.50
2022-09-18T18:14:56.836Z,2.20
2022-09-18T18:17:24.894Z,1.67
2022-09-18T18:19:52.964Z,1.93
2022-09-18T18:22:21.171Z,1.60
2022-09-18T18:24:50.232Z,1.50
2022-09-18T18:27:21.151Z,1.70
2022-09-18T18:29:50.679Z,1.50
2022-09-18T18:32:19.229Z,2.00
2022-09-18T18:34:48.553Z,1.43
2022-09-18T18:37:17.129Z,1.17
2022-09-18T18:39:45.194Z,1.00
2022-09-18T18:42:13.245Z,1.40
2022-09-18T18:44:43.840Z,1.40
2022-09-18T18:47:11.908Z,1.13
2022-09-18T18:49:40.199Z,1.23
2022-09-18T18:52:08.244Z,1.20
2022-09-18T18:54:36.307Z,1.90
2022-09-18T18:57:04.898Z,1.30
2022-09-18T18:59:33.307Z,1.13
2022-09-18T19:02:03.416Z,1.57
2022-09-18T19:04:32.317Z,1.50
2022-09-18T19:07:00.526Z,1.40
2022-09-18T19:09:30.562Z,1.43
2022-09-18T19:11:58.939Z,1.00
2022-09-18T19:14:31.888Z,1.20
2022-09-18T19:17:00.693Z,1.40
2022-09-18T19:19:30.196Z,1.17
2022-09-18T19:21:59.787Z,1.63
2022-09-18T19:24:28.155Z,1.50
2022-09-18T19:26:56.186Z,0.90
2022-09-18T19:29:24.427Z,1.70
2022-09-18T19:31:53.027Z,1.60
2022-09-18T19:34:23.922Z,1.67
2022-09-18T19:36:53.618Z,1.60
2022-09-18T19:39:24.557Z,1.20
2022-09-18T19:41:57.500Z,1.47
2022-09-18T19:44:31.306Z,0.90
2022-09-18T19:47:02.477Z,1.47
2022-09-18T19:49:33.699Z,1.30
2022-09-18T19:52:03.503Z,1.30
2022-09-18T19:54:31.896Z,1.37
2022-09-18T19:57:00.203Z,1.70
2022-09-18T19:59:28.358Z,1.33
2022-09-18T20:01:56.541Z,1.47
2022-09-18T20:04:24.634Z,1.50
2022-09-18T20:06:52.671Z,1.30
2022-09-18T20:09:22.460Z,0.93
2022-09-18T20:11:50.562Z,1.13
2022-09-18T20:14:19.166Z,1.27
2022-09-18T20:16:47.215Z,0.90
2022-09-18T20:19:15.364Z,1.10
2022-09-18T20:21:43.541Z,1.10
2022-09-18T20:24:11.616Z,0.87
2022-09-18T20:26:41.266Z,1.93
2022-09-18T20:29:11.179Z,1.30
2022-09-18T20:31:42.485Z,1.83
2022-09-18T20:34:11.816Z,1.30
2022-09-18T20:36:39.907Z,1.53
2022-09-18T20:39:08.143Z,1.40
2022-09-18T20:41:36.183Z,1.20
2022-09-18T20:44:05.730Z,1.40
2022-09-18T20:46:37.330Z,1.57
2022-09-18T20:49:06.488Z,1.80
2022-09-18T20:51:36.094Z,1.60
2022-09-18T20:54:07.045Z,1.70
2022-09-18T20:56:41.378Z,1.90
2022-09-18T20:59:12.436Z,1.67
2022-09-18T21:01:41.537Z,1.80
2022-09-18T21:04:11.408Z,2.07
2022-09-18T21:06:40.494Z,1.87
2022-09-18T21:09:10.156Z,1.73
2022-09-18T21:11:39.613Z,2.30
2022-09-18T21:14:09.568Z,1.80
2022-09-18T21:16:43.104Z,2.10
2022-09-18T21:19:12.779Z,1.83
2022-09-18T21:21:41.291Z,2.00
2022-09-18T21:24:10.137Z,1.83
2022-09-18T21:26:40.151Z,1.80
2022-09-18T21:29:11.947Z,1.40
2022-09-18T21:31:43.419Z,1.63
2022-09-18T21:34:13.135Z,1.60
2022-09-18T21:36:45.107Z,1.63
2022-09-18T21:39:15.054Z,1.47
2022-09-18T21:41:46.510Z,1.23
2022-09-18T21:44:16.230Z,1.30
2022-09-18T21:46:46.354Z,1.50
2022-09-18T21:49:16.360Z,1.20
2022-09-18T21:51:44.896Z,1.13
2022-09-18T21:54:15.743Z,1.40
2022-09-18T21:56:44.924Z,1.03
2022-09-18T21:59:13.319Z,1.50
2022-09-18T22:01:42.882Z,1.30
2022-09-18T22:04:13.427Z,1.70
2022-09-18T22:06:43.662Z,1.30
2022-09-18T22:09:13.915Z,1.60
2022-09-18T22:11:43.643Z,1.30
2022-09-18T22:14:13.798Z,1.20
2022-09-18T22:16:43.088Z,1.23
2022-09-18T22:19:13.197Z,1.90
2022-09-18T22:21:43.774Z,1.33
2022-09-18T22:24:14.260Z,1.43
2022-09-18T22:26:44.528Z,1.40
2022-09-18T22:29:16.699Z,1.00
2022-09-18T22:31:46.519Z,1.50
2022-09-18T22:34:17.774Z,1.57
2022-09-18T22:36:46.183Z,1.00
2022-09-18T22:39:15.486Z,1.40
2022-09-18T22:41:43.846Z,1.43
2022-09-18T22:44:12.744Z,1.50
2022-09-18T22:46:43.070Z,2.00
2022-09-18T22:49:13.900Z,1.20
2022-09-18T22:51:43.995Z,1.33
2022-09-18T22:54:12.814Z,1.50
2022-09-18T22:56:44.580Z,1.47
2022-09-18T22:59:13.184Z,1.70
2022-09-18T23:01:47.812Z,1.63
2022-09-18T23:04:18.913Z,1.20
2022-09-18T23:06:49.230Z,1.50
2022-09-18T23:09:19.027Z,1.30
2022-09-18T23:11:49.133Z,1.40
2022-09-18T23:14:20.506Z,1.57
2022-09-18T23:16:50.405Z,1.20
2022-09-18T23:19:20.923Z,1.57
2022-09-18T23:21:51.658Z,1.20
2022-09-18T23:24:19.906Z,1.03
2022-09-18T23:26:50.109Z,1.03
2022-09-18T23:29:20.994Z,1.17
2022-09-18T23:31:53.000Z,1.27
2022-09-18T23:34:23.575Z,1.30
2022-09-18T23:36:54.720Z,1.50
2022-09-18T23:39:24.499Z,1.37
2022-09-18T23:41:53.082Z,1.60
2022-09-18T23:44:22.969Z,1.40
2022-09-18T23:46:51.483Z,1.50
2022-09-18T23:49:23.872Z,1.47
2022-09-18T23:51:55.467Z,1.73
2022-09-18T23:54:25.074Z,1.67
2022-09-18T23:56:53.940Z,1.70
2022-09-18T23:59:24.305Z,1.40
